sensor_id;sensor_type;location;lat;lon;timestamp;P1;durP1;ratioP1;P2;durP2;ratioP2
3355;SDS011;1691;52.486;13.374;2022-12-18T00:01:19;38.17;;;15.80;;
3355;SDS011;1691;52.486;13.374;2022-12-18T00:03:55;30.77;;;13.87;;
3355;SDS011;1691;52.486;13.374;2022-12-18T00:06:23;32.60;;;13.90;;
3355;SDS011;1691;52.486;13.374;2022-12-18T00:08:51;33.80;;;14.97;;
3355;SDS011;1691;52.486;13.374;2022-12-18T00:11:20;32.70;;;14.27;;
3355;SDS011;1691;52.486;13.374;2022-12-18T00:13:49;23.97;;;12.50;;
3355;SDS011;1691;52.486;13.374;2022-12-18T00:16:19;35.23;;;12.80;;
3355;SDS011;1691;52.486;13.374;2022-12-18T00:18:48;29.60;;;13.47;;
3355;SDS011;1691;52.486;13.374;2022-12-18T00:21:18;24.80;;;12.30;;
3355;SDS011;1691;52.486;13.374;2022-12-18T00:23:46;31.97;;;14.23;;
3355;SDS011;1691;52.486;13.374;2022-12-18T00:26:36;24.90;;;12.53;;
3355;SDS011;1691;52.486;13.374;2022-12-18T00:29:05;30.60;;;14.17;;
3355;SDS011;1691;52.486;13.374;2022-12-18T00:31:40;32.07;;;14.40;;
3355;SDS011;1691;52.486;13.374;2022-12-18T00:34:09;30.70;;;13.33;;
3355;SDS011;1691;52.486;13.374;2022-12-18T00:36:39;31.23;;;12.70;;
3355;SDS011;1691;52.486;13.374;2022-12-18T00:39:07;28.00;;;13.57;;
3355;SDS011;1691;52.486;13.374;2022-12-18T00:41:36;31.00;;;13.17;;
3355;SDS011;1691;52.486;13.374;2022-12-18T00:44:22;32.67;;;13.10;;
3355;SDS011;1691;52.486;13.374;2022-12-18T00:46:49;26.63;;;12.30;;
3355;SDS011;1691;52.486;13.374;2022-12-18T00:49:17;31.47;;;13.63;;
3355;SDS011;1691;52.486;13.374;2022-12-18T00:51:45;35.80;;;13.13;;
3355;SDS011;1691;52.486;13.374;2022-12-18T00:54:13;33.17;;;14.17;;
3355;SDS011;1691;52.486;13.374;2022-12-18T00:56:40;29.70;;;13.00;;
3355;SDS011;1691;52.486;13.374;2022-12-18T00:59:14;44.77;;;13.03;;
3355;SDS011;1691;52.486;13.374;2022-12-18T01:01:42;28.03;;;13.47;;
3355;SDS011;1691;52.486;13.374;2022-12-18T01:04:10;29.63;;;12.43;;
3355;SDS011;1691;52.486;13.374;2022-12-18T01:06:37;31.27;;;14.13;;
3355;SDS011;1691;52.486;13.374;2022-12-18T01:09:04;35.80;;;13.70;;
3355;SDS011;1691;52.486;13.374;2022-12-18T01:11:32;26.53;;;11.77;;
3355;SDS011;1691;52.486;13.374;2022-12-18T01:13:59;33.67;;;12.27;;
3355;SDS011;1691;52.486;13.374;2022-12-18T01:16:27;30.67;;;13.03;;
3355;SDS011;1691;52.486;13.374;2022-12-18T01:18:54;41.47;;;13.60;;
3355;SDS011;1691;52.486;13.374;2022-12-18T01:21:22;42.20;;;13.70;;
3355;SDS011;1691;52.486;13.374;2022-12-18T01:23:51;29.83;;;11.90;;
3355;SDS011;1691;52.486;13.374;2022-12-18T01:26:20;29.63;;;12.20;;
3355;SDS011;1691;52.486;13.374;2022-12-18T01:28:47;30.33;;;14.00;;
3355;SDS011;1691;52.486;13.374;2022-12-18T01:33:55;34.63;;;13.60;;
3355;SDS011;1691;52.486;13.374;2022-12-18T01:36:24;55.23;;;13.40;;
3355;SDS011;1691;52.486;13.374;2022-12-18T01:39:00;26.37;;;11.80;;
3355;SDS011;1691;52.486;13.374;2022-12-18T01:41:38;49.67;;;13.67;;
3355;SDS011;1691;52.486;13.374;2022-12-18T01:52:50;30.80;;;13.30;;
3355;SDS011;1691;52.486;13.374;2022-12-18T01:55:20;28.37;;;13.03;;
3355;SDS011;1691;52.486;13.374;2022-12-18T01:57:52;36.77;;;14.83;;
3355;SDS011;1691;52.486;13.374;2022-12-18T02:00:23;32.17;;;12.97;;
3355;SDS011;1691;52.486;13.374;2022-12-18T02:02:51;35.43;;;15.67;;
3355;SDS011;1691;52.486;13.374;2022-12-18T02:18:47;34.67;;;13.67;;
3355;SDS011;1691;52.486;13.374;2022-12-18T02:27:05;30.97;;;12.83;;
3355;SDS011;1691;52.486;13.374;2022-12-18T02:29:46;25.10;;;12.43;;
3355;SDS011;1691;52.486;13.374;2022-12-18T02:32:30;38.83;;;14.30;;
3355;SDS011;1691;52.486;13.374;2022-12-18T02:35:06;38.83;;;13.43;;
3355;SDS011;1691;52.486;13.374;2022-12-18T02:37:38;32.27;;;13.40;;
3355;SDS011;1691;52.486;13.374;2022-12-18T02:40:06;34.10;;;13.97;;
3355;SDS011;1691;52.486;13.374;2022-12-18T02:42:35;29.67;;;14.40;;
3355;SDS011;1691;52.486;13.374;2022-12-18T02:45:02;33.00;;;14.50;;
3355;SDS011;1691;52.486;13.374;2022-12-18T02:47:31;38.27;;;13.77;;
3355;SDS011;1691;52.486;13.374;2022-12-18T02:56:25;36.77;;;15.57;;
3355;SDS011;1691;52.486;13.374;2022-12-18T02:59:13;33.13;;;14.77;;
3355;SDS011;1691;52.486;13.374;2022-12-18T03:04:36;35.57;;;14.93;;
3355;SDS011;1691;52.486;13.374;2022-12-18T03:07:06;33.60;;;14.53;;
3355;SDS011;1691;52.486;13.374;2022-12-18T03:09:42;35.57;;;14.50;;
3355;SDS011;1691;52.486;13.374;2022-12-18T03:12:32;33.70;;;13.53;;
3355;SDS011;1691;52.486;13.374;2022-12-18T03:15:08;37.30;;;15.27;;
3355;SDS011;1691;52.486;13.374;2022-12-18T03:17:48;38.50;;;13.90;;
3355;SDS011;1691;52.486;13.374;2022-12-18T03:20:23;47.30;;;17.43;;
3355;SDS011;1691;52.486;13.374;2022-12-18T03:22:58;70.97;;;15.50;;
3355;SDS011;1691;52.486;13.374;2022-12-18T03:25:39;45.07;;;18.07;;
3355;SDS011;1691;52.486;13.374;2022-12-18T03:28:16;52.50;;;17.60;;
3355;SDS011;1691;52.486;13.374;2022-12-18T03:30:49;38.20;;;15.30;;
3355;SDS011;1691;52.486;13.374;2022-12-18T03:33:25;43.87;;;15.67;;
3355;SDS011;1691;52.486;13.374;2022-12-18T03:35:57;49.20;;;16.70;;
3355;SDS011;1691;52.486;13.374;2022-12-18T03:38:24;36.67;;;15.30;;
3355;SDS011;1691;52.486;13.374;2022-12-18T03:41:35;64.77;;;20.30;;
3355;SDS011;1691;52.486;13.374;2022-12-18T03:50:05;56.97;;;16.53;;
3355;SDS011;1691;52.486;13.374;2022-12-18T03:55:28;51.97;;;18.50;;
3355;SDS011;1691;52.486;13.374;2022-12-18T03:58:01;56.47;;;19.63;;
3355;SDS011;1691;52.486;13.374;2022-12-18T04:00:30;63.03;;;21.03;;
3355;SDS011;1691;52.486;13.374;2022-12-18T04:02:58;62.50;;;20.30;;
3355;SDS011;1691;52.486;13.374;2022-12-18T04:05:27;61.90;;;18.53;;
3355;SDS011;1691;52.486;13.374;2022-12-18T04:07:56;73.23;;;21.87;;
3355;SDS011;1691;52.486;13.374;2022-12-18T04:10:23;57.47;;;20.67;;
3355;SDS011;1691;52.486;13.374;2022-12-18T04:12:50;54.03;;;16.80;;
3355;SDS011;1691;52.486;13.374;2022-12-18T04:15:22;70.97;;;21.80;;
3355;SDS011;1691;52.486;13.374;2022-12-18T04:17:50;75.27;;;20.40;;
3355;SDS011;1691;52.486;13.374;2022-12-18T04:20:17;55.00;;;20.53;;
3355;SDS011;1691;52.486;13.374;2022-12-18T04:22:44;54.87;;;20.83;;
3355;SDS011;1691;52.486;13.374;2022-12-18T04:25:11;52.43;;;18.87;;
3355;SDS011;1691;52.486;13.374;2022-12-18T04:27:39;50.70;;;20.30;;
3355;SDS011;1691;52.486;13.374;2022-12-18T04:30:06;63.87;;;19.90;;
3355;SDS011;1691;52.486;13.374;2022-12-18T04:32:34;52.27;;;18.83;;
3355;SDS011;1691;52.486;13.374;2022-12-18T04:35:02;52.60;;;18.90;;
3355;SDS011;1691;52.486;13.374;2022-12-18T04:37:30;56.63;;;19.23;;
3355;SDS011;1691;52.486;13.374;2022-12-18T04:39:57;51.00;;;17.80;;
3355;SDS011;1691;52.486;13.374;2022-12-18T04:42:24;48.63;;;17.20;;
3355;SDS011;1691;52.486;13.374;2022-12-18T04:44:51;45.27;;;15.70;;
3355;SDS011;1691;52.486;13.374;2022-12-18T04:47:18;42.97;;;16.00;;
3355;SDS011;1691;52.486;13.374;2022-12-18T04:49:45;54.10;;;18.33;;
3355;SDS011;1691;52.486;13.374;2022-12-18T04:52:12;53.20;;;17.30;;
3355;SDS011;1691;52.486;13.374;2022-12-18T04:54:39;48.77;;;16.87;;
3355;SDS011;1691;52.486;13.374;2022-12-18T04:57:06;36.07;;;14.53;;
3355;SDS011;1691;52.486;13.374;2022-12-18T04:59:33;42.87;;;13.93;;
3355;SDS011;1691;52.486;13.374;2022-12-18T05:02:00;47.27;;;14.47;;
3355;SDS011;1691;52.486;13.374;2022-12-18T05:04:27;47.00;;;14.00;;
3355;SDS011;1691;52.486;13.374;2022-12-18T05:06:54;39.80;;;15.30;;
3355;SDS011;1691;52.486;13.374;2022-12-18T05:09:21;45.73;;;16.87;;
3355;SDS011;1691;52.486;13.374;2022-12-18T05:11:49;37.47;;;15.40;;
3355;SDS011;1691;52.486;13.374;2022-12-18T05:14:16;55.70;;;17.60;;
3355;SDS011;1691;52.486;13.374;2022-12-18T05:16:43;43.33;;;16.20;;
3355;SDS011;1691;52.486;13.374;2022-12-18T05:19:10;40.37;;;16.70;;
3355;SDS011;1691;52.486;13.374;2022-12-18T05:21:37;39.10;;;15.43;;
3355;SDS011;1691;52.486;13.374;2022-12-18T05:24:04;38.50;;;13.93;;
3355;SDS011;1691;52.486;13.374;2022-12-18T05:26:32;41.63;;;16.47;;
3355;SDS011;1691;52.486;13.374;2022-12-18T05:28:59;37.37;;;16.50;;
3355;SDS011;1691;52.486;13.374;2022-12-18T05:31:26;34.50;;;15.77;;
3355;SDS011;1691;52.486;13.374;2022-12-18T05:33:53;50.03;;;16.13;;
3355;SDS011;1691;52.486;13.374;2022-12-18T05:36:20;35.83;;;14.93;;
3355;SDS011;1691;52.486;13.374;2022-12-18T05:38:47;42.50;;;14.80;;
3355;SDS011;1691;52.486;13.374;2022-12-18T05:41:15;38.50;;;16.27;;
3355;SDS011;1691;52.486;13.374;2022-12-18T05:43:42;42.80;;;16.40;;
3355;SDS011;1691;52.486;13.374;2022-12-18T05:46:14;46.93;;;16.93;;
3355;SDS011;1691;52.486;13.374;2022-12-18T05:48:46;41.97;;;16.23;;
3355;SDS011;1691;52.486;13.374;2022-12-18T05:51:17;49.50;;;17.20;;
3355;SDS011;1691;52.486;13.374;2022-12-18T05:53:46;39.83;;;15.40;;
3355;SDS011;1691;52.486;13.374;2022-12-18T05:56:16;34.93;;;15.83;;
3355;SDS011;1691;52.486;13.374;2022-12-18T05:58:46;43.40;;;16.87;;
3355;SDS011;1691;52.486;13.374;2022-12-18T06:01:15;51.80;;;16.20;;
3355;SDS011;1691;52.486;13.374;2022-12-18T06:03:45;42.50;;;16.83;;
3355;SDS011;1691;52.486;13.374;2022-12-18T06:06:14;44.70;;;16.60;;
3355;SDS011;1691;52.486;13.374;2022-12-18T06:08:53;64.03;;;16.83;;
3355;SDS011;1691;52.486;13.374;2022-12-18T06:11:21;40.23;;;15.07;;
3355;SDS011;1691;52.486;13.374;2022-12-18T06:13:51;47.30;;;17.27;;
3355;SDS011;1691;52.486;13.374;2022-12-18T06:16:24;39.90;;;15.90;;
3355;SDS011;1691;52.486;13.374;2022-12-18T06:18:52;33.97;;;13.83;;
3355;SDS011;1691;52.486;13.374;2022-12-18T06:21:19;51.27;;;19.13;;
3355;SDS011;1691;52.486;13.374;2022-12-18T06:23:46;44.87;;;18.63;;
3355;SDS011;1691;52.486;13.374;2022-12-18T06:26:13;46.33;;;18.33;;
3355;SDS011;1691;52.486;13.374;2022-12-18T06:28:41;50.07;;;18.73;;
3355;SDS011;1691;52.486;13.374;2022-12-18T06:31:08;49.77;;;17.63;;
3355;SDS011;1691;52.486;13.374;2022-12-18T06:33:36;36.07;;;15.60;;
3355;SDS011;1691;52.486;13.374;2022-12-18T06:36:06;60.83;;;22.10;;
3355;SDS011;1691;52.486;13.374;2022-12-18T06:38:39;58.90;;;20.50;;
3355;SDS011;1691;52.486;13.374;2022-12-18T06:41:09;47.57;;;18.57;;
3355;SDS011;1691;52.486;13.374;2022-12-18T06:43:38;53.43;;;21.10;;
3355;SDS011;1691;52.486;13.374;2022-12-18T06:46:06;40.00;;;18.07;;
3355;SDS011;1691;52.486;13.374;2022-12-18T06:48:33;38.23;;;15.03;;
3355;SDS011;1691;52.486;13.374;2022-12-18T06:51:01;43.27;;;15.70;;
3355;SDS011;1691;52.486;13.374;2022-12-18T06:53:28;38.93;;;14.27;;
3355;SDS011;1691;52.486;13.374;2022-12-18T06:55:59;44.87;;;15.43;;
3355;SDS011;1691;52.486;13.374;2022-12-18T06:58:34;35.97;;;14.47;;
3355;SDS011;1691;52.486;13.374;2022-12-18T07:01:02;43.47;;;16.70;;
3355;SDS011;1691;52.486;13.374;2022-12-18T07:03:32;34.63;;;14.20;;
3355;SDS011;1691;52.486;13.374;2022-12-18T07:05:59;39.27;;;15.83;;
3355;SDS011;1691;52.486;13.374;2022-12-18T07:08:26;32.67;;;15.00;;
3355;SDS011;1691;52.486;13.374;2022-12-18T07:10:55;34.13;;;14.63;;
3355;SDS011;1691;52.486;13.374;2022-12-18T07:13:22;34.17;;;11.83;;
3355;SDS011;1691;52.486;13.374;2022-12-18T07:15:49;38.37;;;15.57;;
3355;SDS011;1691;52.486;13.374;2022-12-18T07:18:16;29.97;;;13.00;;
3355;SDS011;1691;52.486;13.374;2022-12-18T07:20:44;40.23;;;13.93;;
3355;SDS011;1691;52.486;13.374;2022-12-18T07:23:11;47.97;;;15.53;;
3355;SDS011;1691;52.486;13.374;2022-12-18T07:25:38;36.10;;;13.97;;
3355;SDS011;1691;52.486;13.374;2022-12-18T07:28:06;35.07;;;15.50;;
3355;SDS011;1691;52.486;13.374;2022-12-18T07:30:37;35.93;;;15.00;;
3355;SDS011;1691;52.486;13.374;2022-12-18T07:33:04;35.10;;;15.20;;
3355;SDS011;1691;52.486;13.374;2022-12-18T07:35:32;28.73;;;14.67;;
3355;SDS011;1691;52.486;13.374;2022-12-18T07:38:00;40.83;;;16.87;;
3355;SDS011;1691;52.486;13.374;2022-12-18T07:40:27;51.10;;;16.47;;
3355;SDS011;1691;52.486;13.374;2022-12-18T07:42:54;34.00;;;15.73;;
3355;SDS011;1691;52.486;13.374;2022-12-18T07:45:21;40.37;;;15.33;;
3355;SDS011;1691;52.486;13.374;2022-12-18T07:47:48;43.03;;;17.33;;
3355;SDS011;1691;52.486;13.374;2022-12-18T07:50:15;35.97;;;15.00;;
3355;SDS011;1691;52.486;13.374;2022-12-18T07:52:42;39.23;;;15.00;;
3355;SDS011;1691;52.486;13.374;2022-12-18T07:55:09;44.27;;;16.37;;
3355;SDS011;1691;52.486;13.374;2022-12-18T07:57:36;34.33;;;14.27;;
3355;SDS011;1691;52.486;13.374;2022-12-18T08:00:23;36.23;;;14.07;;
3355;SDS011;1691;52.486;13.374;2022-12-18T08:02:50;41.40;;;16.13;;
3355;SDS011;1691;52.486;13.374;2022-12-18T08:05:17;28.93;;;13.13;;
3355;SDS011;1691;52.486;13.374;2022-12-18T08:07:45;31.17;;;13.10;;
3355;SDS011;1691;52.486;13.374;2022-12-18T08:10:12;36.37;;;14.13;;
3355;SDS011;1691;52.486;13.374;2022-12-18T08:12:39;37.13;;;15.40;;
3355;SDS011;1691;52.486;13.374;2022-12-18T08:15:06;37.03;;;16.47;;
3355;SDS011;1691;52.486;13.374;2022-12-18T08:17:35;30.77;;;13.23;;
3355;SDS011;1691;52.486;13.374;2022-12-18T08:20:02;39.07;;;14.20;;
3355;SDS011;1691;52.486;13.374;2022-12-18T08:22:29;71.47;;;16.00;;
3355;SDS011;1691;52.486;13.374;2022-12-18T08:24:56;32.50;;;11.83;;
3355;SDS011;1691;52.486;13.374;2022-12-18T08:27:23;49.57;;;15.93;;
3355;SDS011;1691;52.486;13.374;2022-12-18T08:29:55;41.70;;;16.87;;
3355;SDS011;1691;52.486;13.374;2022-12-18T08:32:23;51.30;;;16.70;;
3355;SDS011;1691;52.486;13.374;2022-12-18T08:34:52;34.93;;;15.00;;
3355;SDS011;1691;52.486;13.374;2022-12-18T08:37:19;37.60;;;15.73;;
3355;SDS011;1691;52.486;13.374;2022-12-18T08:39:46;37.07;;;14.10;;
3355;SDS011;1691;52.486;13.374;2022-12-18T08:42:13;38.43;;;16.20;;
3355;SDS011;1691;52.486;13.374;2022-12-18T08:44:59;38.53;;;15.67;;
3355;SDS011;1691;52.486;13.374;2022-12-18T08:47:26;29.73;;;12.93;;
3355;SDS011;1691;52.486;13.374;2022-12-18T08:49:53;35.13;;;14.13;;
3355;SDS011;1691;52.486;13.374;2022-12-18T08:52:20;32.57;;;14.13;;
3355;SDS011;1691;52.486;13.374;2022-12-18T08:54:48;31.90;;;14.53;;
3355;SDS011;1691;52.486;13.374;2022-12-18T08:57:15;34.20;;;14.67;;
3355;SDS011;1691;52.486;13.374;2022-12-18T08:59:42;34.67;;;14.77;;
3355;SDS011;1691;52.486;13.374;2022-12-18T09:02:10;41.70;;;16.30;;
3355;SDS011;1691;52.486;13.374;2022-12-18T09:04:38;35.17;;;16.17;;
3355;SDS011;1691;52.486;13.374;2022-12-18T09:07:06;36.67;;;15.10;;
3355;SDS011;1691;52.486;13.374;2022-12-18T09:09:33;31.57;;;15.10;;
3355;SDS011;1691;52.486;13.374;2022-12-18T09:12:00;34.90;;;16.03;;
3355;SDS011;1691;52.486;13.374;2022-12-18T09:14:27;26.53;;;12.67;;
3355;SDS011;1691;52.486;13.374;2022-12-18T09:16:54;44.50;;;13.83;;
3355;SDS011;1691;52.486;13.374;2022-12-18T09:19:21;28.43;;;14.63;;
3355;SDS011;1691;52.486;13.374;2022-12-18T09:21:48;32.13;;;12.80;;
3355;SDS011;1691;52.486;13.374;2022-12-18T09:24:16;38.00;;;12.50;;
3355;SDS011;1691;52.486;13.374;2022-12-18T09:26:43;30.77;;;13.27;;
3355;SDS011;1691;52.486;13.374;2022-12-18T09:29:13;21.03;;;9.87;;
3355;SDS011;1691;52.486;13.374;2022-12-18T09:31:43;29.60;;;13.87;;
3355;SDS011;1691;52.486;13.374;2022-12-18T09:34:11;31.90;;;14.77;;
3355;SDS011;1691;52.486;13.374;2022-12-18T09:36:38;44.20;;;14.43;;
3355;SDS011;1691;52.486;13.374;2022-12-18T09:39:05;26.60;;;12.73;;
3355;SDS011;1691;52.486;13.374;2022-12-18T09:44:15;33.87;;;12.70;;
3355;SDS011;1691;52.486;13.374;2022-12-18T09:47:02;31.17;;;14.33;;
3355;SDS011;1691;52.486;13.374;2022-12-18T09:49:38;29.73;;;12.40;;
3355;SDS011;1691;52.486;13.374;2022-12-18T09:52:18;34.10;;;13.53;;
3355;SDS011;1691;52.486;13.374;2022-12-18T09:55:03;29.37;;;11.20;;
3355;SDS011;1691;52.486;13.374;2022-12-18T09:57:49;39.27;;;14.20;;
3355;SDS011;1691;52.486;13.374;2022-12-18T10:00:29;42.13;;;14.00;;
3355;SDS011;1691;52.486;13.374;2022-12-18T10:02:59;46.63;;;14.17;;
3355;SDS011;1691;52.486;13.374;2022-12-18T10:20:27;22.37;;;10.60;;
3355;SDS011;1691;52.486;13.374;2022-12-18T10:23:03;45.77;;;16.87;;
3355;SDS011;1691;52.486;13.374;2022-12-18T10:25:38;31.23;;;14.87;;
3355;SDS011;1691;52.486;13.374;2022-12-18T10:28:24;44.20;;;15.87;;
3355;SDS011;1691;52.486;13.374;2022-12-18T10:30:52;42.17;;;16.00;;
3355;SDS011;1691;52.486;13.374;2022-12-18T10:33:20;36.00;;;14.67;;
3355;SDS011;1691;52.486;13.374;2022-12-18T10:35:50;39.90;;;16.67;;
3355;SDS011;1691;52.486;13.374;2022-12-18T10:43:32;32.03;;;14.30;;
3355;SDS011;1691;52.486;13.374;2022-12-18T11:02:54;39.40;;;16.73;;
3355;SDS011;1691;52.486;13.374;2022-12-18T11:07:59;35.40;;;14.43;;
3355;SDS011;1691;52.486;13.374;2022-12-18T11:10:34;36.17;;;15.77;;
3355;SDS011;1691;52.486;13.374;2022-12-18T11:13:37;27.40;;;10.70;;
3355;SDS011;1691;52.486;13.374;2022-12-18T11:15:58;49.27;;;17.83;;
3355;SDS011;1691;52.486;13.374;2022-12-18T11:18:30;42.43;;;16.97;;
3355;SDS011;1691;52.486;13.374;2022-12-18T11:21:11;42.00;;;17.13;;
3355;SDS011;1691;52.486;13.374;2022-12-18T11:23:52;41.13;;;16.30;;
3355;SDS011;1691;52.486;13.374;2022-12-18T11:26:19;47.97;;;17.13;;
3355;SDS011;1691;52.486;13.374;2022-12-18T11:29:07;39.60;;;17.20;;
3355;SDS011;1691;52.486;13.374;2022-12-18T11:31:37;34.60;;;14.93;;
3355;SDS011;1691;52.486;13.374;2022-12-18T11:34:05;38.33;;;16.60;;
3355;SDS011;1691;52.486;13.374;2022-12-18T11:36:58;40.70;;;16.30;;
3355;SDS011;1691;52.486;13.374;2022-12-18T11:44:47;28.30;;;13.30;;
3355;SDS011;1691;52.486;13.374;2022-12-18T11:47:37;35.97;;;13.10;;
3355;SDS011;1691;52.486;13.374;2022-12-18T11:50:54;18.70;;;8.70;;
3355;SDS011;1691;52.486;13.374;2022-12-18T11:53:24;27.60;;;13.80;;
3355;SDS011;1691;52.486;13.374;2022-12-18T12:02:03;30.03;;;13.93;;
3355;SDS011;1691;52.486;13.374;2022-12-18T12:07:07;30.67;;;12.97;;
3355;SDS011;1691;52.486;13.374;2022-12-18T12:09:56;31.57;;;10.53;;
3355;SDS011;1691;52.486;13.374;2022-12-18T12:15:58;24.63;;;12.40;;
3355;SDS011;1691;52.486;13.374;2022-12-18T12:18:45;17.20;;;10.77;;
3355;SDS011;1691;52.486;13.374;2022-12-18T12:38:21;27.20;;;14.60;;
3355;SDS011;1691;52.486;13.374;2022-12-18T12:41:01;31.10;;;14.03;;
3355;SDS011;1691;52.486;13.374;2022-12-18T12:43:52;32.73;;;14.43;;
3355;SDS011;1691;52.486;13.374;2022-12-18T12:46:24;29.10;;;14.50;;
3355;SDS011;1691;52.486;13.374;2022-12-18T12:48:53;30.17;;;13.83;;
3355;SDS011;1691;52.486;13.374;2022-12-18T12:54:30;37.20;;;14.00;;
3355;SDS011;1691;52.486;13.374;2022-12-18T13:00:03;25.43;;;13.00;;
3355;SDS011;1691;52.486;13.374;2022-12-18T13:05:43;30.90;;;13.43;;
3355;SDS011;1691;52.486;13.374;2022-12-18T13:09:02;26.83;;;12.80;;
3355;SDS011;1691;52.486;13.374;2022-12-18T13:11:39;29.83;;;12.87;;
3355;SDS011;1691;52.486;13.374;2022-12-18T13:19:51;31.13;;;15.67;;
3355;SDS011;1691;52.486;13.374;2022-12-18T13:22:35;30.60;;;15.70;;
3355;SDS011;1691;52.486;13.374;2022-12-18T13:28:20;25.80;;;12.30;;
3355;SDS011;1691;52.486;13.374;2022-12-18T13:30:49;29.10;;;14.10;;
3355;SDS011;1691;52.486;13.374;2022-12-18T13:36:01;32.80;;;14.67;;
3355;SDS011;1691;52.486;13.374;2022-12-18T13:44:35;27.87;;;14.47;;
3355;SDS011;1691;52.486;13.374;2022-12-18T13:50:04;27.20;;;11.73;;
3355;SDS011;1691;52.486;13.374;2022-12-18T13:52:46;26.67;;;14.10;;
3355;SDS011;1691;52.486;13.374;2022-12-18T13:55:17;24.60;;;13.77;;
3355;SDS011;1691;52.486;13.374;2022-12-18T13:57:46;24.47;;;13.57;;
3355;SDS011;1691;52.486;13.374;2022-12-18T14:02:57;22.70;;;13.27;;
3355;SDS011;1691;52.486;13.374;2022-12-18T14:08:08;23.87;;;12.47;;
3355;SDS011;1691;52.486;13.374;2022-12-18T14:10:54;29.70;;;15.40;;
3355;SDS011;1691;52.486;13.374;2022-12-18T14:13:37;29.87;;;16.70;;
3355;SDS011;1691;52.486;13.374;2022-12-18T14:16:13;35.20;;;17.90;;
3355;SDS011;1691;52.486;13.374;2022-12-18T14:18:59;36.17;;;17.03;;
3355;SDS011;1691;52.486;13.374;2022-12-18T14:21:47;23.30;;;12.00;;
3355;SDS011;1691;52.486;13.374;2022-12-18T14:24:29;36.40;;;18.17;;
3355;SDS011;1691;52.486;13.374;2022-12-18T14:30:28;32.30;;;14.43;;
3355;SDS011;1691;52.486;13.374;2022-12-18T14:33:28;25.40;;;12.53;;
3355;SDS011;1691;52.486;13.374;2022-12-18T14:36:31;28.70;;;12.70;;
3355;SDS011;1691;52.486;13.374;2022-12-18T14:40:00;20.43;;;14.00;;
3355;SDS011;1691;52.486;13.374;2022-12-18T14:55:31;33.13;;;16.80;;
3355;SDS011;1691;52.486;13.374;2022-12-18T14:58:11;19.43;;;10.57;;
3355;SDS011;1691;52.486;13.374;2022-12-18T15:00:50;28.07;;;13.50;;
3355;SDS011;1691;52.486;13.374;2022-12-18T15:03:19;15.07;;;9.70;;
3355;SDS011;1691;52.486;13.374;2022-12-18T15:09:26;23.93;;;14.23;;
3355;SDS011;1691;52.486;13.374;2022-12-18T15:12:38;18.43;;;11.20;;
3355;SDS011;1691;52.486;13.374;2022-12-18T15:16:09;13.70;;;9.87;;
3355;SDS011;1691;52.486;13.374;2022-12-18T15:19:02;22.90;;;13.00;;
3355;SDS011;1691;52.486;13.374;2022-12-18T15:22:17;24.97;;;13.40;;
3355;SDS011;1691;52.486;13.374;2022-12-18T15:25:34;14.07;;;10.90;;
3355;SDS011;1691;52.486;13.374;2022-12-18T15:28:26;8.67;;;5.83;;
3355;SDS011;1691;52.486;13.374;2022-12-18T15:37:01;26.40;;;13.30;;
3355;SDS011;1691;52.486;13.374;2022-12-18T15:39:56;19.77;;;11.27;;
3355;SDS011;1691;52.486;13.374;2022-12-18T15:42:33;27.67;;;12.67;;
3355;SDS011;1691;52.486;13.374;2022-12-18T15:45:46;25.47;;;12.60;;
3355;SDS011;1691;52.486;13.374;2022-12-18T15:51:36;24.00;;;13.97;;
3355;SDS011;1691;52.486;13.374;2022-12-18T15:54:28;18.93;;;12.03;;
3355;SDS011;1691;52.486;13.374;2022-12-18T15:57:21;18.63;;;11.17;;
3355;SDS011;1691;52.486;13.374;2022-12-18T16:00:05;12.03;;;9.80;;
3355;SDS011;1691;52.486;13.374;2022-12-18T16:02:48;25.73;;;11.87;;
3355;SDS011;1691;52.486;13.374;2022-12-18T16:05:33;20.20;;;12.87;;
3355;SDS011;1691;52.486;13.374;2022-12-18T16:08:12;25.00;;;12.07;;
3355;SDS011;1691;52.486;13.374;2022-12-18T16:11:03;12.93;;;8.90;;
3355;SDS011;1691;52.486;13.374;2022-12-18T16:20:16;16.10;;;10.40;;
3355;SDS011;1691;52.486;13.374;2022-12-18T16:23:43;14.97;;;10.40;;
3355;SDS011;1691;52.486;13.374;2022-12-18T16:26:18;18.43;;;12.07;;
3355;SDS011;1691;52.486;13.374;2022-12-18T16:29:14;22.27;;;13.00;;
3355;SDS011;1691;52.486;13.374;2022-12-18T16:32:11;24.83;;;10.73;;
3355;SDS011;1691;52.486;13.374;2022-12-18T16:35:02;19.63;;;12.27;;
3355;SDS011;1691;52.486;13.374;2022-12-18T16:37:56;28.17;;;13.23;;
3355;SDS011;1691;52.486;13.374;2022-12-18T16:44:49;15.57;;;8.67;;
3355;SDS011;1691;52.486;13.374;2022-12-18T16:47:35;16.60;;;10.03;;
3355;SDS011;1691;52.486;13.374;2022-12-18T16:50:34;22.30;;;12.87;;
3355;SDS011;1691;52.486;13.374;2022-12-18T16:53:47;17.13;;;13.10;;
3355;SDS011;1691;52.486;13.374;2022-12-18T16:56:36;24.80;;;13.53;;
3355;SDS011;1691;52.486;13.374;2022-12-18T16:59:15;26.90;;;12.47;;
3355;SDS011;1691;52.486;13.374;2022-12-18T17:02:08;18.27;;;12.30;;
3355;SDS011;1691;52.486;13.374;2022-12-18T17:05:17;23.20;;;13.57;;
3355;SDS011;1691;52.486;13.374;2022-12-18T17:08:00;25.30;;;14.90;;
3355;SDS011;1691;52.486;13.374;2022-12-18T17:10:37;21.23;;;12.67;;
3355;SDS011;1691;52.486;13.374;2022-12-18T17:13:17;26.20;;;13.87;;
3355;SDS011;1691;52.486;13.374;2022-12-18T17:16:00;29.57;;;14.30;;
3355;SDS011;1691;52.486;13.374;2022-12-18T17:18:37;14.23;;;9.70;;
3355;SDS011;1691;52.486;13.374;2022-12-18T17:21:12;25.00;;;14.17;;
3355;SDS011;1691;52.486;13.374;2022-12-18T17:23:49;27.67;;;15.13;;
3355;SDS011;1691;52.486;13.374;2022-12-18T17:26:37;35.47;;;15.10;;
3355;SDS011;1691;52.486;13.374;2022-12-18T17:29:42;27.23;;;14.73;;
3355;SDS011;1691;52.486;13.374;2022-12-18T17:33:18;25.60;;;14.10;;
3355;SDS011;1691;52.486;13.374;2022-12-18T17:36:11;28.27;;;15.60;;
3355;SDS011;1691;52.486;13.374;2022-12-18T17:38:59;28.33;;;14.57;;
3355;SDS011;1691;52.486;13.374;2022-12-18T17:41:39;25.20;;;13.53;;
3355;SDS011;1691;52.486;13.374;2022-12-18T17:44:31;24.87;;;13.00;;
3355;SDS011;1691;52.486;13.374;2022-12-18T17:47:21;32.33;;;16.03;;
3355;SDS011;1691;52.486;13.374;2022-12-18T17:50:13;23.53;;;13.70;;
3355;SDS011;1691;52.486;13.374;2022-12-18T17:52:58;33.97;;;16.10;;
3355;SDS011;1691;52.486;13.374;2022-12-18T17:55:39;19.90;;;14.37;;
3355;SDS011;1691;52.486;13.374;2022-12-18T17:58:42;33.40;;;16.50;;
3355;SDS011;1691;52.486;13.374;2022-12-18T18:01:32;25.93;;;14.87;;
3355;SDS011;1691;52.486;13.374;2022-12-18T18:04:12;26.33;;;12.97;;
3355;SDS011;1691;52.486;13.374;2022-12-18T18:06:53;32.13;;;15.37;;
3355;SDS011;1691;52.486;13.374;2022-12-18T18:09:28;32.50;;;14.17;;
3355;SDS011;1691;52.486;13.374;2022-12-18T18:12:15;36.23;;;18.13;;
3355;SDS011;1691;52.486;13.374;2022-12-18T18:15:53;40.13;;;17.90;;
3355;SDS011;1691;52.486;13.374;2022-12-18T18:18:50;35.53;;;15.93;;
3355;SDS011;1691;52.486;13.374;2022-12-18T18:21:18;31.07;;;14.50;;
3355;SDS011;1691;52.486;13.374;2022-12-18T18:23:54;29.60;;;15.90;;
3355;SDS011;1691;52.486;13.374;2022-12-18T18:26:25;37.00;;;17.90;;
3355;SDS011;1691;52.486;13.374;2022-12-18T18:29:16;32.60;;;14.53;;
3355;SDS011;1691;52.486;13.374;2022-12-18T18:32:08;33.63;;;17.20;;
3355;SDS011;1691;52.486;13.374;2022-12-18T18:34:42;25.97;;;13.60;;
3355;SDS011;1691;52.486;13.374;2022-12-18T18:37:43;37.03;;;17.90;;
3355;SDS011;1691;52.486;13.374;2022-12-18T18:40:23;43.30;;;17.67;;
3355;SDS011;1691;52.486;13.374;2022-12-18T18:46:34;29.93;;;16.00;;
3355;SDS011;1691;52.486;13.374;2022-12-18T18:49:07;34.80;;;17.73;;